Time;durP1;ratioP1;P1;durP2;ratioP2;P2;SDS_P1;SDS_P2;PMS_P1;PMS_P2;Temp;Humidity;BMP_temperature;BMP_pressure;BME280_temperature;BME280_humidity;BME280_pressure;Samples;Min_cycle;Max_cycle;Signal;HPM_P1;HPM_P2
2023/10/17 00:00:38;;;;;;;2.72;1.73;;;;;;;7.44;100.00;102091.69;2051859;28;20216;-68
2023/10/17 00:01:51;;;;;;;3.53;1.75;;;;;;;7.45;100.00;102087.75;2056419;28;20186;-68
2023/10/17 00:02:51;;;;;;;4.60;1.90;;;;;;;7.22;100.00;102052.00;2049941;29;20612;-68
2023/10/17 00:03:54;;;;;;;2.97;1.43;;;;;;;7.45;100.00;102090.50;2049858;29;20854;-68
2023/10/17 00:04:54;;;;;;;2.60;1.90;;;;;;;7.45;100.00;102087.75;2049537;29;20209;-67
2023/10/17 00:05:55;;;;;;;4.00;1.70;;;;;;;7.42;100.00;102089.28;2049961;28;20441;-68
2023/10/17 00:06:58;;;;;;;4.37;1.63;;;;;;;7.24;100.00;102057.97;2049708;28;20650;-68
2023/10/17 00:07:59;;;;;;;2.63;1.70;;;;;;;7.48;100.00;102092.53;2054189;28;20275;-68
2023/10/17 00:09:00;;;;;;;2.93;1.57;;;;;;;7.42;100.00;102086.53;2054442;28;20467;-68
2023/10/17 00:10:01;;;;;;;3.30;1.80;;;;;;;7.42;100.00;102092.06;2049642;28;20179;-69
2023/10/17 00:11:14;;;;;;;2.47;1.80;;;;;;;7.41;100.00;102101.50;2048306;29;20434;-68
2023/10/17 00:14:34;;;;;;;2.78;1.70;;;;;;;7.42;100.00;102091.25;2049529;29;20166;-68
2023/10/17 00:15:38;;;;;;;4.73;1.90;;;;;;;7.12;100.00;102041.66;2049552;28;20167;-68
2023/10/17 00:16:38;;;;;;;3.73;1.73;;;;;;;7.45;100.00;102090.50;2049800;29;20425;-68
2023/10/17 00:17:39;;;;;;;3.60;1.70;;;;;;;7.44;100.00;102086.94;2049414;29;20469;-68
2023/10/17 00:18:40;;;;;;;4.43;2.10;;;;;;;7.45;100.00;102085.00;2049663;28;20211;-68
2023/10/17 00:19:41;;;;;;;1.70;1.47;;;;;;;7.47;100.00;102090.91;2049756;28;20181;-68
2023/10/17 00:20:43;;;;;;;2.43;1.63;;;;;;;7.46;100.00;102081.06;2049608;29;20213;-68
2023/10/17 00:21:44;;;;;;;2.87;1.70;;;;;;;7.48;100.00;102085.03;2049587;28;20930;-68
2023/10/17 00:22:45;;;;;;;3.43;1.83;;;;;;;7.49;100.00;102081.09;2049416;28;20435;-68
2023/10/17 00:23:46;;;;;;;3.73;1.90;;;;;;;7.50;100.00;102081.91;2049520;28;20429;-68
2023/10/17 00:24:47;;;;;;;2.93;1.70;;;;;;;7.48;100.00;102082.28;2048823;28;20198;-68
2023/10/17 00:25:49;;;;;;;2.03;1.43;;;;;;;7.55;100.00;102081.56;2049584;29;20935;-68
2023/10/17 00:26:49;;;;;;;4.43;2.30;;;;;;;7.54;100.00;102083.50;2049028;29;20217;-68
2023/10/17 00:27:50;;;;;;;3.93;1.80;;;;;;;7.50;100.00;102076.38;2049211;28;20451;-68
2023/10/17 00:28:53;;;;;;;2.67;1.70;;;;;;;7.52;100.00;102085.06;2049249;29;20186;-68
2023/10/17 00:29:53;;;;;;;2.80;1.80;;;;;;;7.37;100.00;102070.31;2048992;29;20559;-68
2023/10/17 00:30:54;;;;;;;4.23;1.97;;;;;;;7.22;100.00;102059.50;2049508;29;20433;-68
2023/10/17 00:31:55;;;;;;;2.20;1.60;;;;;;;7.23;100.00;102061.09;2049352;28;20696;-68
2023/10/17 00:32:56;;;;;;;3.07;1.60;;;;;;;7.45;100.00;102085.00;2049577;28;20683;-68
2023/10/17 00:34:00;;;;;;;2.67;1.67;;;;;;;7.44;100.00;102077.91;2051753;28;20804;-68
2023/10/17 00:35:08;;;;;;;1.87;1.40;;;;;;;7.43;100.00;102079.84;2049402;29;20203;-68
2023/10/17 00:36:16;;;;;;;2.97;2.20;;;;;;;7.43;100.00;102076.31;2049461;29;20437;-68
2023/10/17 00:37:19;;;;;;;3.40;1.48;;;;;;;7.45;100.00;102080.28;2049362;29;20454;-68
2023/10/17 00:38:20;;;;;;;4.22;2.15;;;;;;;7.46;100.00;102075.53;2049082;29;20213;-68
2023/10/17 00:39:31;;;;;;;2.57;1.70;;;;;;;7.46;100.00;102070.84;2049379;29;20278;-68
2023/10/17 00:40:34;;;;;;;4.60;1.90;;;;;;;7.45;100.00;102066.50;2049537;29;20183;-68
2023/10/17 00:41:49;;;;;;;2.87;1.60;;;;;;;7.42;100.00;102069.19;2042453;29;20847;-68
2023/10/17 00:42:49;;;;;;;4.03;2.00;;;;;;;7.41;100.00;102073.91;2045989;29;20402;-68
2023/10/17 00:43:53;;;;;;;2.33;1.50;;;;;;;7.39;100.00;102067.19;2043449;28;20191;-68
2023/10/17 00:44:53;;;;;;;2.93;1.40;;;;;;;7.36;100.00;102059.66;2057116;28;20184;-68
2023/10/17 00:45:54;;;;;;;3.10;1.60;;;;;;;7.41;100.00;102070.34;2049519;29;20425;-68
2023/10/17 00:46:54;;;;;;;2.53;1.80;;;;;;;7.38;100.00;102068.38;2049307;29;20186;-68
2023/10/17 00:47:55;;;;;;;3.00;1.47;;;;;;;7.36;100.00;102074.25;2048329;28;20669;-68
2023/10/17 00:48:56;;;;;;;2.40;1.43;;;;;;;7.37;100.00;102066.75;2040480;29;20206;-68
2023/10/17 00:49:59;;;;;;;4.20;2.13;;;;;;;7.38;100.00;102060.09;2040951;29;20195;-68
2023/10/17 00:51:09;;;;;;;4.27;1.80;;;;;;;7.39;100.00;102064.44;2049095;29;20175;-68
2023/10/17 00:52:18;;;;;;;4.80;2.53;;;;;;;7.12;100.00;102030.63;2041756;29;20433;-68
2023/10/17 00:53:20;;;;;;;7.03;1.93;;;;;;;7.35;100.00;102069.09;2048476;28;20457;-68
2023/10/17 00:54:24;;;;;;;2.47;1.70;;;;;;;7.35;100.00;102063.59;2049469;29;20511;-68
2023/10/17 00:55:26;;;;;;;2.67;1.58;;;;;;;7.34;100.00;102067.53;2049345;29;20580;-68
2023/10/17 00:56:27;;;;;;;2.20;1.60;;;;;;;7.33;100.00;102063.19;2048854;29;20204;-68
2023/10/17 00:57:28;;;;;;;2.10;1.30;;;;;;;7.29;100.00;102063.13;2055235;28;20450;-68
2023/10/17 00:58:28;;;;;;;1.63;1.40;;;;;;;7.21;100.00;102063.41;2051854;28;20648;-68
2023/10/17 00:59:32;;;;;;;2.20;1.47;;;;;;;7.15;100.00;102060.19;2048976;29;20584;-68
2023/10/17 01:00:36;;;;;;;3.45;1.40;;;;;;;6.55;100.00;101997.97;2049165;28;20200;-68
2023/10/17 01:01:40;;;;;;;2.45;1.73;;;;;;;6.34;100.00;101980.31;2049025;28;20188;-68
2023/10/17 01:02:47;;;;;;;3.77;1.77;;;;;;;6.76;100.00;102064.38;2049146;29;20178;-69
2023/10/17 01:03:52;;;;;;;3.22;1.98;;;;;;;6.71;100.00;102064.69;2048648;29;20460;-69
2023/10/17 01:04:56;;;;;;;1.73;1.40;;;;;;;6.61;100.00;102059.81;2048686;28;20181;-68
2023/10/17 01:05:57;;;;;;;3.90;1.88;;;;;;;6.51;100.00;102065.97;2049573;29;20184;-67
2023/10/17 01:07:05;;;;;;;6.00;2.20;;;;;;;6.06;100.00;102001.94;2049009;29;20188;-67
2023/10/17 01:08:06;;;;;;;2.83;1.92;;;;;;;6.35;100.00;102070.06;2048396;29;20237;-68
2023/10/17 01:09:24;;;;;;;4.77;1.73;;;;;;;6.34;100.00;102060.97;2048474;28;20201;-68
2023/10/17 01:10:26;;;;;;;2.97;1.95;;;;;;;6.30;100.00;102060.13;2048693;28;20217;-68
2023/10/17 01:11:30;;;;;;;1.45;1.02;;;;;;;6.28;100.00;102050.66;2048701;29;20202;-69
2023/10/17 01:12:30;;;;;;;2.85;2.13;;;;;;;6.31;100.00;102060.94;2048958;29;20199;-68
2023/10/17 01:13:31;;;;;;;3.40;2.00;;;;;;;6.28;100.00;102056.16;2045241;29;20690;-68
2023/10/17 01:14:32;;;;;;;3.97;2.20;;;;;;;6.24;100.00;102058.84;2040616;29;20175;-68
2023/10/17 01:15:33;;;;;;;3.50;2.00;;;;;;;6.20;100.00;102055.25;2049050;29;20185;-68
2023/10/17 01:16:34;;;;;;;3.77;2.23;;;;;;;5.62;100.00;101978.72;2049598;29;20187;-69
2023/10/17 01:17:35;;;;;;;2.75;1.67;;;;;;;6.16;100.00;102054.38;2049104;29;20192;-68
2023/10/17 01:18:35;;;;;;;2.83;1.63;;;;;;;6.15;100.00;102057.53;2048716;29;20279;-68
2023/10/17 01:19:36;;;;;;;5.23;2.20;;;;;;;6.13;100.00;102071.66;2049373;29;20248;-68
2023/10/17 01:20:37;;;;;;;4.10;2.60;;;;;;;6.13;100.00;102063.38;2048744;29;20204;-68
2023/10/17 01:21:40;;;;;;;4.73;2.10;;;;;;;6.08;100.00;102063.69;2051949;28;20196;-68
2023/10/17 01:22:42;;;;;;;4.20;1.92;;;;;;;5.60;100.00;101992.06;2053329;28;20248;-68
2023/10/17 01:23:43;;;;;;;1.83;1.42;;;;;;;6.06;100.00;102068.75;2048517;28;20667;-68
2023/10/17 01:24:44;;;;;;;5.85;2.17;;;;;;;6.04;100.00;102068.34;2049209;29;20235;-68
2023/10/17 01:25:46;;;;;;;5.57;2.08;;;;;;;6.06;100.00;102056.97;2048824;28;20195;-68
2023/10/17 01:26:47;;;;;;;3.88;2.20;;;;;;;6.11;100.00;102056.66;2048841;29;20193;-68
2023/10/17 01:27:49;;;;;;;13.57;2.17;;;;;;;6.10;100.00;102063.34;2048648;29;20669;-68
2023/10/17 01:28:51;;;;;;;5.97;2.33;;;;;;;6.08;100.00;102060.94;2048240;28;20194;-68
2023/10/17 01:29:52;;;;;;;6.80;2.67;;;;;;;6.04;100.00;102062.03;2047993;29;20737;-69
2023/10/17 01:30:55;;;;;;;3.83;2.30;;;;;;;5.99;100.00;102060.38;2047799;28;20734;-68
2023/10/17 01:31:57;;;;;;;3.38;1.80;;;;;;;6.03;100.00;102060.44;2048805;29;20176;-68
2023/10/17 01:32:58;;;;;;;3.78;2.72;;;;;;;5.67;100.00;102014.97;2048045;28;20598;-69
2023/10/17 01:34:02;;;;;;;3.28;2.00;;;;;;;5.91;100.00;102044.13;2048710;28;20611;-69
2023/10/17 01:35:03;;;;;;;6.45;1.98;;;;;;;6.14;100.00;102073.22;2048641;28;20258;-68
2023/10/17 01:36:09;;;;;;;6.30;2.73;;;;;;;5.85;100.00;102032.63;2048539;28;20211;-68
2023/10/17 01:37:10;;;;;;;6.43;2.47;;;;;;;6.17;100.00;102074.44;2048382;29;20202;-69
2023/10/17 01:38:13;;;;;;;3.40;1.75;;;;;;;6.20;100.00;102082.75;2048325;28;20570;-68
2023/10/17 01:39:14;;;;;;;2.72;1.70;;;;;;;6.11;100.00;102057.44;2048301;28;20278;-68
2023/10/17 01:40:26;;;;;;;4.03;2.03;;;;;;;6.24;100.00;102080.88;2048109;28;22964;-68
2023/10/17 01:41:27;;;;;;;2.92;2.03;;;;;;;6.23;100.00;102076.53;2048546;28;20819;-68
2023/10/17 01:42:27;;;;;;;4.07;2.00;;;;;;;6.23;100.00;102076.53;2048820;29;20186;-68
2023/10/17 01:43:35;;;;;;;1.60;1.33;;;;;;;6.05;100.00;102047.91;2048199;28;20194;-68
2023/10/17 01:44:36;;;;;;;3.03;2.20;;;;;;;6.31;100.00;102072.72;2048654;29;20237;-69
2023/10/17 01:45:37;;;;;;;3.90;1.70;;;;;;;6.32;100.00;102071.59;2048780;29;20187;-69
2023/10/17 01:46:38;;;;;;;7.50;2.70;;;;;;;6.33;100.00;102072.34;2048476;29;20221;-68
2023/10/17 01:47:39;;;;;;;6.50;2.28;;;;;;;6.37;100.00;102075.97;2048352;28;20202;-68
2023/10/17 01:48:40;;;;;;;5.27;2.13;;;;;;;6.21;100.00;102059.56;2047811;29;20207;-69
2023/10/17 01:49:40;;;;;;;4.70;2.00;;;;;;;6.36;100.00;102079.91;2048237;29;20645;-68
2023/10/17 01:50:41;;;;;;;4.53;2.10;;;;;;;6.37;100.00;102082.28;2047600;29;20542;-68
2023/10/17 01:51:42;;;;;;;2.77;1.60;;;;;;;6.37;100.00;102076.78;2048402;29;20307;-68
2023/10/17 01:52:44;;;;;;;3.38;1.70;;;;;;;6.32;100.00;102079.84;2048209;28;20218;-68
2023/10/17 01:54:13;;;;;;;3.60;1.85;;;;;;;6.32;100.00;102085.34;2048246;29;20239;-68
2023/10/17 01:55:16;;;;;;;6.72;2.25;;;;;;;6.32;100.00;102084.53;2042470;29;20168;-68
2023/10/17 01:56:20;;;;;;;3.67;1.70;;;;;;;6.29;100.00;102077.00;2048378;29;20744;-68
2023/10/17 01:57:21;;;;;;;4.30;2.30;;;;;;;6.31;100.00;102078.22;2048266;28;20668;-69
2023/10/17 01:58:22;;;;;;;6.10;1.83;;;;;;;6.33;100.00;102069.59;2048718;29;20317;-68
2023/10/17 01:59:25;;;;;;;3.27;1.70;;;;;;;6.30;100.00;102075.88;2048090;28;20653;-68
2023/10/17 02:01:31;;;;;;;3.43;1.60;;;;;;;6.24;100.00;102069.88;2047035;28;20210;-69
2023/10/17 02:02:32;;;;;;;2.30;1.50;;;;;;;6.26;100.00;102073.03;2048238;29;20198;-68
2023/10/17 02:03:34;;;;;;;2.00;1.60;;;;;;;6.29;100.00;102072.31;2047832;28;20734;-69
2023/10/17 02:04:35;;;;;;;4.18;2.20;;;;;;;6.28;100.00;102067.97;2048297;29;20198;-68
2023/10/17 02:05:36;;;;;;;2.65;1.40;;;;;;;6.29;100.00;102069.56;2048073;28;20201;-70
2023/10/17 02:06:36;;;;;;;3.70;2.00;;;;;;;6.28;100.00;102067.97;2048240;28;20394;-68
2023/10/17 02:07:37;;;;;;;3.47;2.03;;;;;;;6.30;100.00;102056.59;2047819;29;20187;-68
2023/10/17 02:08:39;;;;;;;3.60;1.70;;;;;;;6.36;100.00;102064.16;2047682;28;20576;-68
2023/10/17 02:10:43;;;;;;;4.30;1.90;;;;;;;6.25;100.00;102062.41;2048714;28;20198;-69
2023/10/17 02:11:44;;;;;;;3.92;2.10;;;;;;;6.23;100.00;102059.22;2047817;28;20284;-68
2023/10/17 02:12:47;;;;;;;3.23;2.00;;;;;;;6.31;100.00;102069.19;2048285;28;20208;-69
2023/10/17 02:13:48;;;;;;;4.30;1.40;;;;;;;6.34;100.00;102068.44;2047798;29;20555;-68
2023/10/17 02:14:49;;;;;;;2.58;1.90;;;;;;;6.29;100.00;102060.47;2049091;28;20631;-69
2023/10/17 02:15:50;;;;;;;3.17;1.87;;;;;;;6.38;100.00;102075.63;2056753;28;20187;-69
2023/10/17 02:16:51;;;;;;;4.07;1.75;;;;;;;6.42;100.00;102072.91;2048610;28;20665;-69
2023/10/17 02:17:53;;;;;;;8.47;2.40;;;;;;;6.42;100.00;102081.94;2048229;28;20281;-69
2023/10/17 02:18:58;;;;;;;4.28;1.77;;;;;;;6.40;100.00;102078.78;2048144;28;20199;-68
2023/10/17 02:19:59;;;;;;;4.53;2.25;;;;;;;6.43;100.00;102075.28;2048429;28;20700;-69
2023/10/17 02:21:04;;;;;;;7.73;2.37;;;;;;;6.43;100.00;102072.53;2048097;29;20601;-68
2023/10/17 02:22:09;;;;;;;2.80;2.17;;;;;;;6.46;100.00;102076.53;2048127;28;20291;-70
2023/10/17 02:23:19;;;;;;;2.05;1.63;;;;;;;6.45;100.00;102078.47;2055357;28;20696;-69
2023/10/17 02:24:20;;;;;;;7.57;1.80;;;;;;;5.82;100.00;101972.84;2054613;28;20179;-68
2023/10/17 02:25:21;;;;;;;2.53;1.50;;;;;;;6.40;100.00;102064.22;2051384;28;20280;-69
2023/10/17 02:26:22;;;;;;;1.95;1.38;;;;;;;6.39;100.00;102073.63;2048696;28;20206;-68
2023/10/17 02:27:23;;;;;;;4.47;1.98;;;;;;;6.37;100.00;102062.19;2048185;28;20257;-69
2023/10/17 02:28:24;;;;;;;4.50;1.97;;;;;;;6.35;100.00;102068.06;2048443;29;20203;-68
2023/10/17 02:29:26;;;;;;;2.65;2.13;;;;;;;6.29;100.00;102066.81;2047506;28;20199;-68
2023/10/17 02:30:27;;;;;;;4.65;1.80;;;;;;;6.21;100.00;102064.31;2039929;29;20230;-68
2023/10/17 02:31:29;;;;;;;3.93;1.57;;;;;;;6.20;100.00;102054.47;2047485;28;20294;-69
2023/10/17 02:32:29;;;;;;;2.67;1.60;;;;;;;6.20;100.00;102063.50;2050908;28;20191;-69
2023/10/17 02:33:30;;;;;;;5.00;1.77;;;;;;;6.19;100.00;102063.84;2053702;28;20237;-69
2023/10/17 02:34:31;;;;;;;4.15;1.60;;;;;;;6.18;100.00;102063.09;2048374;28;20682;-68
2023/10/17 02:35:41;;;;;;;2.70;1.87;;;;;;;6.20;100.00;102076.47;2048564;28;20230;-68
2023/10/17 02:36:41;;;;;;;2.70;1.75;;;;;;;6.23;100.00;102071.03;2040798;29;20226;-68
2023/10/17 02:37:44;;;;;;;2.00;1.30;;;;;;;6.00;100.00;102041.94;2047179;29;20244;-68
2023/10/17 02:38:45;;;;;;;3.35;2.00;;;;;;;6.19;100.00;102070.16;2048173;28;20748;-68
2023/10/17 02:39:45;;;;;;;3.07;1.83;;;;;;;6.17;100.00;102068.94;2048354;28;20604;-68
2023/10/17 02:40:53;;;;;;;2.03;1.37;;;;;;;6.09;100.00;102065.28;2047326;29;20198;-68
2023/10/17 02:42:06;;;;;;;4.18;2.00;;;;;;;6.03;100.00;102069.50;2047726;29;20205;-68
2023/10/17 02:43:12;;;;;;;4.93;2.25;;;;;;;6.07;100.00;102072.31;2043727;28;20207;-69
2023/10/17 02:44:18;;;;;;;3.25;1.80;;;;;;;5.92;100.00;102056.72;2042480;29;20197;-69
2023/10/17 02:45:25;;;;;;;2.90;1.67;;;;;;;6.09;100.00;102078.22;2048125;29;20290;-69
2023/10/17 02:46:29;;;;;;;2.58;1.83;;;;;;;6.07;100.00;102077.81;2048471;28;20182;-68
2023/10/17 02:47:30;;;;;;;3.35;1.73;;;;;;;6.09;100.00;102081.78;2048214;29;20683;-69
2023/10/17 02:48:38;;;;;;;3.13;2.00;;;;;;;6.09;100.00;102079.03;2047853;28;20574;-69
2023/10/17 02:49:39;;;;;;;4.28;2.15;;;;;;;5.90;100.00;102048.03;2048216;28;20931;-68
2023/10/17 02:51:43;;;;;;;2.97;1.97;;;;;;;6.08;100.00;102071.16;2048154;28;20206;-68
2023/10/17 02:52:47;;;;;;;2.53;1.45;;;;;;;6.08;100.00;102069.19;2048187;28;20234;-68
2023/10/17 02:53:52;;;;;;;2.05;1.60;;;;;;;6.08;100.00;102066.44;2047833;28;20550;-69
2023/10/17 02:54:56;;;;;;;2.65;1.88;;;;;;;6.09;100.00;102075.47;2047917;29;20249;-69
2023/10/17 02:56:08;;;;;;;2.38;1.65;;;;;;;6.07;100.00;102069.56;2048665;28;20226;-69
2023/10/17 02:57:10;;;;;;;3.17;2.10;;;;;;;6.04;100.00;102075.78;2052032;28;20669;-69
2023/10/17 02:58:10;;;;;;;4.30;2.40;;;;;;;6.01;100.00;102082.03;2053306;28;23301;-68
2023/10/17 02:59:12;;;;;;;3.13;1.93;;;;;;;5.99;100.00;102070.59;2047828;28;20191;-69
2023/10/17 03:01:52;;;;;;;3.47;2.20;;;;;;;5.64;100.00;102018.44;2042887;28;20211;-68
2023/10/17 03:02:55;;;;;;;3.83;2.42;;;;;;;5.85;100.00;102056.59;2048072;28;20550;-68
2023/10/17 03:03:55;;;;;;;4.15;2.40;;;;;;;5.77;100.00;102050.13;2047378;29;20584;-69
2023/10/17 03:05:02;;;;;;;7.73;2.20;;;;;;;5.77;100.00;102063.09;2048489;28;20190;-68
2023/10/17 03:06:05;;;;;;;5.97;2.75;;;;;;;5.74;100.00;102066.59;2055223;28;20254;-68
2023/10/17 03:07:07;;;;;;;4.90;2.80;;;;;;;5.73;100.00;102065.78;2048308;29;20658;-69
2023/10/17 03:08:15;;;;;;;3.90;2.15;;;;;;;5.74;100.00;102061.09;2048378;29;20558;-69
2023/10/17 03:10:37;;;;;;;4.38;1.80;;;;;;;5.50;100.00;102020.97;2048635;28;20205;-68
2023/10/17 03:11:47;;;;;;;4.43;2.50;;;;;;;5.80;100.00;102056.91;2048496;28;20186;-68
2023/10/17 03:12:55;;;;;;;4.53;2.60;;;;;;;5.79;100.00;102058.81;2040394;29;20604;-69
2023/10/17 03:13:57;;;;;;;3.58;2.13;;;;;;;5.76;100.00;102051.31;2040025;29;20278;-69
2023/10/17 03:16:01;;;;;;;2.20;1.70;;;;;;;5.76;100.00;102056.81;2047824;29;20203;-68
2023/10/17 03:17:01;;;;;;;3.90;1.88;;;;;;;5.26;100.00;101991.03;2047527;29;20282;-68
2023/10/17 03:18:02;;;;;;;3.23;1.63;;;;;;;5.74;100.00;102056.34;2047974;28;20232;-68
2023/10/17 03:19:05;;;;;;;1.90;1.60;;;;;;;5.72;100.00;102057.88;2047893;29;20262;-69
2023/10/17 03:20:09;;;;;;;4.07;2.03;;;;;;;5.28;100.00;101990.69;2048360;28;20186;-69
2023/10/17 03:21:10;;;;;;;2.88;1.75;;;;;;;5.75;100.00;102062.66;2048006;29;20204;-68
2023/10/17 03:22:24;;;;;;;3.17;1.90;;;;;;;5.71;100.00;102061.81;2048428;29;20198;-69
2023/10/17 03:23:28;;;;;;;4.35;1.90;;;;;;;5.75;100.00;102070.91;2047852;28;20258;-68
2023/10/17 03:24:38;;;;;;;3.65;1.85;;;;;;;5.73;100.00;102065.78;2047215;29;20198;-69
2023/10/17 03:25:40;;;;;;;3.83;2.25;;;;;;;5.71;100.00;102065.34;2046783;29;20554;-69
2023/10/17 03:26:41;;;;;;;4.30;2.67;;;;;;;5.72;100.00;102064.19;2046911;29;20202;-69
2023/10/17 03:27:48;;;;;;;3.35;1.77;;;;;;;5.72;100.00;102063.38;2047720;28;20199;-69
2023/10/17 03:28:50;;;;;;;2.45;1.83;;;;;;;5.10;100.00;101973.84;2048160;29;20194;-69
2023/10/17 03:29:51;;;;;;;8.88;2.35;;;;;;;5.64;100.00;102073.47;2047882;29;20203;-69
2023/10/17 03:30:51;;;;;;;3.47;1.73;;;;;;;5.60;100.00;102067.09;2051685;28;20198;-69
2023/10/17 03:31:58;;;;;;;4.33;2.23;;;;;;;5.56;100.00;102062.69;2053711;28;20182;-69
2023/10/17 03:34:02;;;;;;;5.17;2.20;;;;;;;5.52;100.00;102065.38;2048575;29;20186;-69
2023/10/17 03:35:07;;;;;;;2.20;1.50;;;;;;;5.52;100.00;102062.63;2041292;29;20744;-68
2023/10/17 03:36:34;;;;;;;3.28;2.00;;;;;;;5.53;100.00;102058.72;2049924;29;20270;-69
2023/10/17 03:37:29;;;;;;;4.55;2.30;;;;;;;5.52;100.00;102059.88;2033701;29;20211;-69
2023/10/17 03:38:36;;;;;;;3.85;2.15;;;;;;;5.56;100.00;102065.44;2041726;29;20192;-69
2023/10/17 03:39:51;;;;;;;4.85;2.20;;;;;;;4.93;100.00;101954.25;2041763;29;20183;-68
2023/10/17 03:40:53;;;;;;;6.40;2.67;;;;;;;5.11;100.00;101989.16;2041082;29;20533;-68
2023/10/17 03:41:56;;;;;;;3.35;2.35;;;;;;;5.63;100.00;102062.81;2033190;29;20204;-68
2023/10/17 03:43:01;;;;;;;4.47;1.90;;;;;;;5.63;100.00;102087.56;2033428;29;20619;-68
2023/10/17 03:44:02;;;;;;;5.22;2.58;;;;;;;5.53;100.00;102057.94;2041903;29;20270;-68
2023/10/17 03:45:23;;;;;;;4.07;2.70;;;;;;;5.27;100.00;102017.34;2040993;29;20342;-68
2023/10/17 03:46:34;;;;;;;7.90;2.72;;;;;;;5.50;100.00;102051.22;2041703;29;20187;-69
2023/10/17 03:47:34;;;;;;;6.63;2.38;;;;;;;5.67;100.00;102075.50;2041189;29;20202;-68
2023/10/17 03:48:39;;;;;;;3.90;2.10;;;;;;;5.67;100.00;102078.25;2041577;29;20191;-68
2023/10/17 03:49:40;;;;;;;3.60;1.88;;;;;;;5.59;100.00;102068.25;2041495;29;20297;-68
2023/10/17 03:50:48;;;;;;;2.80;1.80;;;;;;;5.64;100.00;102072.69;2041307;29;20194;-70
2023/10/17 03:51:53;;;;;;;4.78;1.45;;;;;;;5.53;100.00;102077.97;2041010;29;20195;-69
2023/10/17 03:52:54;;;;;;;3.25;1.80;;;;;;;5.53;100.00;102080.72;2041146;29;20779;-68
2023/10/17 03:54:06;;;;;;;3.80;2.27;;;;;;;5.47;100.00;102075.84;2040893;29;20729;-68
2023/10/17 03:55:10;;;;;;;3.80;2.25;;;;;;;5.54;100.00;102082.28;2041295;29;20172;-69
2023/10/17 03:56:23;;;;;;;5.85;2.70;;;;;;;5.56;100.00;102090.19;2040772;29;20184;-68
2023/10/17 03:57:27;;;;;;;5.90;2.40;;;;;;;5.60;100.00;102075.34;2042196;29;20171;-69
2023/10/17 03:59:38;;;;;;;3.17;2.13;;;;;;;5.51;100.00;102063.78;2041158;29;20206;-68
2023/10/17 04:00:46;;;;;;;3.78;1.83;;;;;;;5.65;100.00;102085.25;2033922;29;20170;-68
2023/10/17 04:01:49;;;;;;;7.43;2.33;;;;;;;5.66;100.00;102082.16;2041690;29;20168;-68
2023/10/17 04:02:50;;;;;;;3.67;2.50;;;;;;;5.70;100.00;102072.00;2041476;29;20623;-68
2023/10/17 04:03:54;;;;;;;3.13;2.17;;;;;;;5.62;100.00;102074.97;2040663;29;20379;-69
2023/10/17 04:04:54;;;;;;;5.82;2.50;;;;;;;5.69;100.00;102075.13;2040665;29;20197;-68
2023/10/17 04:07:09;;;;;;;3.78;2.38;;;;;;;5.58;100.00;102079.59;2041346;29;20223;-68
2023/10/17 04:08:10;;;;;;;6.30;2.60;;;;;;;5.58;100.00;102079.59;2041426;29;20210;-68
2023/10/17 04:09:26;;;;;;;5.13;2.87;;;;;;;5.60;100.00;102082.81;2040788;29;20574;-68
2023/10/17 04:10:36;;;;;;;3.78;2.22;;;;;;;5.55;100.00;102086.63;2041430;29;20212;-68
2023/10/17 04:11:36;;;;;;;3.47;2.40;;;;;;;5.56;100.00;102081.94;2045089;29;20650;-68
2023/10/17 04:12:48;;;;;;;2.60;1.90;;;;;;;5.60;100.00;102091.06;2046744;29;20655;-68
2023/10/17 04:13:54;;;;;;;3.05;1.90;;;;;;;5.62;100.00;102081.28;2039315;29;20658;-68
2023/10/17 04:14:59;;;;;;;3.20;2.15;;;;;;;5.64;100.00;102080.94;2040689;29;20607;-68
2023/10/17 04:16:01;;;;;;;2.72;2.13;;;;;;;5.66;100.00;102082.16;2041435;29;20193;-68
2023/10/17 04:17:14;;;;;;;4.20;2.22;;;;;;;5.57;100.00;102075.28;2041339;29;20204;-69
2023/10/17 04:18:14;;;;;;;1.80;1.40;;;;;;;5.64;100.00;102084.47;2041247;29;20168;-69
2023/10/17 04:19:18;;;;;;;3.73;1.80;;;;;;;5.65;100.00;102088.78;2041098;29;20248;-68
2023/10/17 04:20:22;;;;;;;2.53;1.90;;;;;;;5.66;100.00;102076.66;2033515;29;20202;-69
2023/10/17 04:21:27;;;;;;;3.10;1.88;;;;;;;5.67;100.00;102072.75;2041023;29;20211;-69
2023/10/17 04:22:29;;;;;;;2.75;2.00;;;;;;;5.67;100.00;102077.44;2033525;29;20672;-68
2023/10/17 04:23:31;;;;;;;1.95;1.50;;;;;;;5.67;100.00;102074.69;2032403;29;20196;-69
2023/10/17 04:24:35;;;;;;;3.05;1.83;;;;;;;5.70;100.00;102072.00;2040822;29;20695;-68
2023/10/17 04:25:37;;;;;;;2.85;1.95;;;;;;;5.67;100.00;102074.69;2045573;29;20186;-71
2023/10/17 04:26:44;;;;;;;2.30;1.67;;;;;;;5.73;100.00;102076.78;2049071;29;20198;-68
2023/10/17 04:27:46;;;;;;;2.78;1.92;;;;;;;5.77;100.00;102083.16;2045567;29;20199;-68
2023/10/17 04:28:50;;;;;;;2.88;1.85;;;;;;;5.47;100.00;102043.69;2041193;29;20266;-68
2023/10/17 04:29:50;;;;;;;3.67;1.52;;;;;;;5.77;100.00;102090.59;2040568;29;20206;-68
2023/10/17 04:30:56;;;;;;;3.47;2.00;;;;;;;5.80;100.00;102090.69;2040518;29;20272;-68
2023/10/17 04:31:57;;;;;;;3.33;2.40;;;;;;;5.71;100.00;102067.31;2034342;29;20176;-68
2023/10/17 04:33:09;;;;;;;5.03;3.43;;;;;;;5.81;100.00;102081.31;2041444;29;20303;-67
2023/10/17 04:34:21;;;;;;;5.03;3.13;;;;;;;5.56;100.00;102046.19;2040541;29;20827;-67
2023/10/17 04:35:23;;;;;;;6.45;3.33;;;;;;;5.80;100.00;102081.66;2040833;29;20183;-66
2023/10/17 04:36:26;;;;;;;4.90;2.55;;;;;;;5.83;100.00;102084.47;2048124;28;20207;-66
2023/10/17 04:37:33;;;;;;;5.15;2.72;;;;;;;5.86;100.00;102081.00;2048497;28;20585;-66
2023/10/17 04:38:37;;;;;;;5.47;2.25;;;;;;;5.63;100.00;102055.38;2055397;28;20296;-66
2023/10/17 04:39:48;;;;;;;3.30;1.88;;;;;;;5.86;100.00;102083.75;2055094;28;20282;-66
2023/10/17 04:42:47;;;;;;;10.02;4.18;;;;;;;5.92;100.00;102090.53;2044493;29;20184;-67
2023/10/17 04:43:55;;;;;;;4.70;2.88;;;;;;;5.89;100.00;102082.22;2039188;28;20212;-67
2023/10/17 04:45:05;;;;;;;4.75;3.08;;;;;;;5.90;100.00;102092.84;2046878;29;20171;-67
2023/10/17 04:46:08;;;;;;;5.35;2.80;;;;;;;5.89;100.00;102094.00;2047344;28;20191;-67
2023/10/17 04:48:32;;;;;;;4.20;2.03;;;;;;;5.62;100.00;102050.22;2042102;28;20225;-66
2023/10/17 04:49:36;;;;;;;5.30;2.75;;;;;;;5.85;100.00;102093.13;2030455;28;20205;-66
2023/10/17 04:50:56;;;;;;;3.38;2.30;;;;;;;5.85;100.00;102103.38;2051790;28;20197;-66
2023/10/17 04:52:08;;;;;;;4.60;2.63;;;;;;;5.46;100.00;102038.53;2045552;28;20174;-66
2023/10/17 04:53:09;;;;;;;6.20;3.28;;;;;;;5.87;100.00;102092.78;2045539;28;20390;-66
2023/10/17 04:54:39;;;;;;;7.97;4.72;;;;;;;5.89;100.00;102090.47;2052117;28;20200;-66
2023/10/17 04:55:40;;;;;;;5.50;3.75;;;;;;;5.87;100.00;102103.78;2052044;28;20197;-66
2023/10/17 04:57:04;;;;;;;4.63;2.65;;;;;;;5.82;100.00;102101.34;2034555;28;20324;-67
2023/10/17 04:58:30;;;;;;;5.72;3.20;;;;;;;5.74;100.00;102097.63;2044748;28;20199;-67
2023/10/17 05:02:02;;;;;;;5.65;2.92;;;;;;;5.71;100.00;102105.81;2041360;28;20434;-69
2023/10/17 05:03:14;;;;;;;4.38;2.67;;;;;;;5.49;100.00;102082.59;2044287;28;20193;-68
2023/10/17 06:16:51;;;;;;;3.75;2.50;;;;;;;7.72;100.00;102153.50;2043441;29;20646;-67
2023/10/17 06:17:53;;;;;;;4.23;2.50;;;;;;;7.76;100.00;102150.78;2044780;29;20242;-67
2023/10/17 06:18:56;;;;;;;4.17;2.70;;;;;;;7.79;100.00;102156.34;2042579;29;20511;-67
2023/10/17 06:20:00;;;;;;;5.40;2.73;;;;;;;7.85;100.00;102148.53;2042299;29;20457;-67
2023/10/17 06:27:11;;;;;;;5.90;3.00;;;;;;;8.09;100.00;102143.28;2039329;29;20993;-67
2023/10/17 06:28:28;;;;;;;7.80;2.63;;;;;;;8.17;100.00;102147.72;2041930;29;20618;-67
2023/10/17 06:30:34;;;;;;;4.60;3.17;;;;;;;8.17;100.00;102125.63;2041123;29;20794;-67
2023/10/17 06:31:41;;;;;;;3.50;2.70;;;;;;;8.28;100.00;102142.31;2043867;29;20286;-67
2023/10/17 06:34:01;;;;;;;4.87;2.17;;;;;;;8.40;100.00;102136.53;2041641;29;20404;-67
2023/10/17 06:35:20;;;;;;;5.20;2.67;;;;;;;8.44;100.00;102143.66;2013220;29;20483;-67
2023/10/17 06:36:30;;;;;;;5.27;3.00;;;;;;;8.49;100.00;102140.53;2033805;29;20178;-67
2023/10/17 06:37:32;;;;;;;4.77;3.03;;;;;;;8.48;100.00;102124.34;2037581;29;20430;-67